sensor_id;sensor_type;location;lat;lon;timestamp;temperature;humidity
33881;DHT22;20172;47.530;10.256;2023-02-01T00:01:18;4.80;90.70
33881;DHT22;20172;47.530;10.256;2023-02-01T00:03:44;4.80;90.60
33881;DHT22;20172;47.530;10.256;2023-02-01T00:06:09;4.70;90.80
33881;DHT22;20172;47.530;10.256;2023-02-01T00:08:35;4.60;90.60
33881;DHT22;20172;47.530;10.256;2023-02-01T00:11:07;4.60;90.70
33881;DHT22;20172;47.530;10.256;2023-02-01T00:13:33;4.60;90.80
33881;DHT22;20172;47.530;10.256;2023-02-01T00:16:06;4.50;90.70
33881;DHT22;20172;47.530;10.256;2023-02-01T00:18:32;4.50;90.90
33881;DHT22;20172;47.530;10.256;2023-02-01T00:20:57;4.40;91.20
33881;DHT22;20172;47.530;10.256;2023-02-01T00:23:23;4.30;91.40
33881;DHT22;20172;47.530;10.256;2023-02-01T00:25:49;4.30;91.50
33881;DHT22;20172;47.530;10.256;2023-02-01T00:28:14;4.10;91.50
33881;DHT22;20172;47.530;10.256;2023-02-01T00:30:40;4.10;91.70
33881;DHT22;20172;47.530;10.256;2023-02-01T00:33:05;4.10;91.80
33881;DHT22;20172;47.530;10.256;2023-02-01T00:35:31;4.00;91.70
33881;DHT22;20172;47.530;10.256;2023-02-01T00:37:58;4.00;91.40
33881;DHT22;20172;47.530;10.256;2023-02-01T00:40:24;4.10;91.40
33881;DHT22;20172;47.530;10.256;2023-02-01T00:42:50;4.30;91.10
33881;DHT22;20172;47.530;10.256;2023-02-01T00:45:15;4.60;91.60
33881;DHT22;20172;47.530;10.256;2023-02-01T00:47:41;4.50;91.60
33881;DHT22;20172;47.530;10.256;2023-02-01T00:50:07;4.30;91.70
33881;DHT22;20172;47.530;10.256;2023-02-01T00:52:32;4.10;92.00
33881;DHT22;20172;47.530;10.256;2023-02-01T00:54:58;4.00;92.20
33881;DHT22;20172;47.530;10.256;2023-02-01T00:57:23;3.90;92.60
33881;DHT22;20172;47.530;10.256;2023-02-01T00:59:49;3.90;92.80
33881;DHT22;20172;47.530;10.256;2023-02-01T01:02:14;4.20;92.70
33881;DHT22;20172;47.530;10.256;2023-02-01T01:04:40;4.10;92.40
33881;DHT22;20172;47.530;10.256;2023-02-01T01:07:05;4.20;92.30
33881;DHT22;20172;47.530;10.256;2023-02-01T01:09:31;4.10;92.30
33881;DHT22;20172;47.530;10.256;2023-02-01T01:11:56;4.00;92.70
33881;DHT22;20172;47.530;10.256;2023-02-01T01:14:22;4.00;93.00
33881;DHT22;20172;47.530;10.256;2023-02-01T01:16:47;3.90;93.20
33881;DHT22;20172;47.530;10.256;2023-02-01T01:19:15;3.90;93.50
33881;DHT22;20172;47.530;10.256;2023-02-01T01:21:41;4.00;93.70
33881;DHT22;20172;47.530;10.256;2023-02-01T01:24:06;3.90;93.60
33881;DHT22;20172;47.530;10.256;2023-02-01T01:26:32;3.90;94.10
33881;DHT22;20172;47.530;10.256;2023-02-01T01:28:58;4.00;94.30
33881;DHT22;20172;47.530;10.256;2023-02-01T01:31:25;4.00;94.50
33881;DHT22;20172;47.530;10.256;2023-02-01T01:33:51;4.10;94.60
33881;DHT22;20172;47.530;10.256;2023-02-01T01:36:17;4.20;94.80
33881;DHT22;20172;47.530;10.256;2023-02-01T01:38:42;4.20;94.80
33881;DHT22;20172;47.530;10.256;2023-02-01T01:41:09;4.30;94.70
33881;DHT22;20172;47.530;10.256;2023-02-01T01:46:15;4.20;94.50
33881;DHT22;20172;47.530;10.256;2023-02-01T01:48:40;4.20;94.50
33881;DHT22;20172;47.530;10.256;2023-02-01T01:51:07;4.30;95.10
33881;DHT22;20172;47.530;10.256;2023-02-01T01:53:37;4.30;95.00
33881;DHT22;20172;47.530;10.256;2023-02-01T01:56:03;4.30;95.20
33881;DHT22;20172;47.530;10.256;2023-02-01T01:58:29;4.40;94.80
33881;DHT22;20172;47.530;10.256;2023-02-01T02:00:57;4.40;95.10
33881;DHT22;20172;47.530;10.256;2023-02-01T02:05:54;4.40;95.00
33881;DHT22;20172;47.530;10.256;2023-02-01T02:08:20;4.40;95.20
33881;DHT22;20172;47.530;10.256;2023-02-01T02:10:48;4.50;95.20
33881;DHT22;20172;47.530;10.256;2023-02-01T02:13:41;4.50;95.30
33881;DHT22;20172;47.530;10.256;2023-02-01T02:16:12;4.60;95.40
33881;DHT22;20172;47.530;10.256;2023-02-01T02:31:58;4.30;96.30
33881;DHT22;20172;47.530;10.256;2023-02-01T02:37:16;4.50;96.20
33881;DHT22;20172;47.530;10.256;2023-02-01T02:51:18;4.10;97.70
33881;DHT22;20172;47.530;10.256;2023-02-01T02:54:08;4.00;97.70
33881;DHT22;20172;47.530;10.256;2023-02-01T02:56:55;4.00;97.90
33881;DHT22;20172;47.530;10.256;2023-02-01T02:59:40;4.10;97.80
33881;DHT22;20172;47.530;10.256;2023-02-01T03:02:26;4.10;98.20
33881;DHT22;20172;47.530;10.256;2023-02-01T03:05:11;4.00;98.20
33881;DHT22;20172;47.530;10.256;2023-02-01T03:12:40;3.80;98.10
33881;DHT22;20172;47.530;10.256;2023-02-01T03:15:45;3.90;98.30
33881;DHT22;20172;47.530;10.256;2023-02-01T03:18:16;3.80;98.20
33881;DHT22;20172;47.530;10.256;2023-02-01T03:20:43;3.50;98.50
33881;DHT22;20172;47.530;10.256;2023-02-01T03:23:10;3.40;98.60
33881;DHT22;20172;47.530;10.256;2023-02-01T03:25:37;3.40;98.60
33881;DHT22;20172;47.530;10.256;2023-02-01T03:28:04;3.50;98.40
33881;DHT22;20172;47.530;10.256;2023-02-01T03:30:32;3.40;98.40
33881;DHT22;20172;47.530;10.256;2023-02-01T03:33:00;3.50;95.80
33881;DHT22;20172;47.530;10.256;2023-02-01T03:35:28;3.60;96.60
33881;DHT22;20172;47.530;10.256;2023-02-01T03:37:55;3.60;97.20
33881;DHT22;20172;47.530;10.256;2023-02-01T03:40:23;3.50;97.40
33881;DHT22;20172;47.530;10.256;2023-02-01T03:42:50;3.40;98.00
33881;DHT22;20172;47.530;10.256;2023-02-01T03:45:18;3.50;97.40
33881;DHT22;20172;47.530;10.256;2023-02-01T03:47:47;3.40;97.90
33881;DHT22;20172;47.530;10.256;2023-02-01T03:50:14;3.30;97.70
33881;DHT22;20172;47.530;10.256;2023-02-01T03:52:47;3.30;97.70
33881;DHT22;20172;47.530;10.256;2023-02-01T03:55:14;3.40;97.20
33881;DHT22;20172;47.530;10.256;2023-02-01T03:57:41;3.70;97.10
33881;DHT22;20172;47.530;10.256;2023-02-01T04:00:14;3.70;96.90
33881;DHT22;20172;47.530;10.256;2023-02-01T04:02:40;3.60;97.10
33881;DHT22;20172;47.530;10.256;2023-02-01T04:05:05;3.70;96.90
33881;DHT22;20172;47.530;10.256;2023-02-01T04:07:31;3.70;97.10
33881;DHT22;20172;47.530;10.256;2023-02-01T04:09:57;3.70;96.80
33881;DHT22;20172;47.530;10.256;2023-02-01T04:12:22;3.70;97.10
33881;DHT22;20172;47.530;10.256;2023-02-01T04:14:48;3.90;97.30
33881;DHT22;20172;47.530;10.256;2023-02-01T04:17:13;3.90;97.00
33881;DHT22;20172;47.530;10.256;2023-02-01T04:19:39;3.80;97.20
33881;DHT22;20172;47.530;10.256;2023-02-01T04:22:04;4.00;97.00
33881;DHT22;20172;47.530;10.256;2023-02-01T04:24:30;4.00;96.30
33881;DHT22;20172;47.530;10.256;2023-02-01T04:26:55;4.00;96.50
33881;DHT22;20172;47.530;10.256;2023-02-01T04:29:21;4.10;96.70
33881;DHT22;20172;47.530;10.256;2023-02-01T04:31:46;4.20;96.70
33881;DHT22;20172;47.530;10.256;2023-02-01T04:34:12;4.20;97.00
33881;DHT22;20172;47.530;10.256;2023-02-01T04:36:37;4.30;97.20
33881;DHT22;20172;47.530;10.256;2023-02-01T04:39:03;4.30;97.20
33881;DHT22;20172;47.530;10.256;2023-02-01T04:41:28;4.30;97.30
33881;DHT22;20172;47.530;10.256;2023-02-01T04:43:55;4.20;97.50
33881;DHT22;20172;47.530;10.256;2023-02-01T04:46:20;4.50;97.10
33881;DHT22;20172;47.530;10.256;2023-02-01T04:48:46;4.40;97.20
33881;DHT22;20172;47.530;10.256;2023-02-01T04:51:11;4.30;97.50
33881;DHT22;20172;47.530;10.256;2023-02-01T04:53:37;4.30;97.80
33881;DHT22;20172;47.530;10.256;2023-02-01T04:56:02;4.30;97.80
33881;DHT22;20172;47.530;10.256;2023-02-01T04:58:28;4.30;97.90
33881;DHT22;20172;47.530;10.256;2023-02-01T05:00:53;4.30;98.10
33881;DHT22;20172;47.530;10.256;2023-02-01T05:03:19;4.30;98.10
33881;DHT22;20172;47.530;10.256;2023-02-01T05:05:46;4.40;97.90
33881;DHT22;20172;47.530;10.256;2023-02-01T05:08:12;4.60;96.10
33881;DHT22;20172;47.530;10.256;2023-02-01T05:10:37;4.50;96.10
33881;DHT22;20172;47.530;10.256;2023-02-01T05:13:03;4.60;94.50
33881;DHT22;20172;47.530;10.256;2023-02-01T05:15:46;4.80;94.20
33881;DHT22;20172;47.530;10.256;2023-02-01T05:18:12;4.80;94.20
33881;DHT22;20172;47.530;10.256;2023-02-01T05:20:38;5.00;94.00
33881;DHT22;20172;47.530;10.256;2023-02-01T05:23:03;5.00;94.30
33881;DHT22;20172;47.530;10.256;2023-02-01T05:25:29;5.20;94.90
33881;DHT22;20172;47.530;10.256;2023-02-01T05:27:54;5.30;95.00
33881;DHT22;20172;47.530;10.256;2023-02-01T05:30:20;5.20;95.80
33881;DHT22;20172;47.530;10.256;2023-02-01T05:32:48;5.20;96.00
33881;DHT22;20172;47.530;10.256;2023-02-01T05:35:14;5.30;96.50
33881;DHT22;20172;47.530;10.256;2023-02-01T05:37:39;5.20;97.70
33881;DHT22;20172;47.530;10.256;2023-02-01T05:40:05;5.20;96.60
33881;DHT22;20172;47.530;10.256;2023-02-01T05:42:31;5.00;96.00
33881;DHT22;20172;47.530;10.256;2023-02-01T05:44:56;4.90;96.50
33881;DHT22;20172;47.530;10.256;2023-02-01T05:47:22;4.90;97.00
33881;DHT22;20172;47.530;10.256;2023-02-01T05:49:47;5.00;97.80
33881;DHT22;20172;47.530;10.256;2023-02-01T05:52:13;5.00;98.00
33881;DHT22;20172;47.530;10.256;2023-02-01T05:54:38;5.10;98.40
33881;DHT22;20172;47.530;10.256;2023-02-01T05:57:04;5.00;98.90
33881;DHT22;20172;47.530;10.256;2023-02-01T05:59:29;5.00;99.90
33881;DHT22;20172;47.530;10.256;2023-02-01T06:01:55;4.70;99.90
33881;DHT22;20172;47.530;10.256;2023-02-01T06:04:20;4.60;99.90
33881;DHT22;20172;47.530;10.256;2023-02-01T06:06:46;5.00;99.90
33881;DHT22;20172;47.530;10.256;2023-02-01T06:09:11;5.10;99.90
33881;DHT22;20172;47.530;10.256;2023-02-01T06:11:37;5.20;99.90
33881;DHT22;20172;47.530;10.256;2023-02-01T06:14:02;5.00;99.90
33881;DHT22;20172;47.530;10.256;2023-02-01T06:16:28;4.80;99.90
33881;DHT22;20172;47.530;10.256;2023-02-01T06:18:53;4.80;99.90
33881;DHT22;20172;47.530;10.256;2023-02-01T06:21:19;4.80;99.90
33881;DHT22;20172;47.530;10.256;2023-02-01T06:23:57;4.80;99.90
33881;DHT22;20172;47.530;10.256;2023-02-01T06:26:23;4.80;99.90
33881;DHT22;20172;47.530;10.256;2023-02-01T06:28:49;4.70;99.90
33881;DHT22;20172;47.530;10.256;2023-02-01T06:31:15;4.80;99.90
33881;DHT22;20172;47.530;10.256;2023-02-01T06:33:41;4.90;99.90
33881;DHT22;20172;47.530;10.256;2023-02-01T06:36:07;4.90;99.90
33881;DHT22;20172;47.530;10.256;2023-02-01T06:38:33;4.90;99.90
33881;DHT22;20172;47.530;10.256;2023-02-01T06:41:02;4.80;99.90
33881;DHT22;20172;47.530;10.256;2023-02-01T06:43:28;4.90;99.90
33881;DHT22;20172;47.530;10.256;2023-02-01T06:45:58;5.00;99.90
33881;DHT22;20172;47.530;10.256;2023-02-01T06:48:24;5.00;99.90
33881;DHT22;20172;47.530;10.256;2023-02-01T06:50:50;5.00;99.90
33881;DHT22;20172;47.530;10.256;2023-02-01T06:53:16;4.90;99.90
33881;DHT22;20172;47.530;10.256;2023-02-01T06:55:42;4.80;99.90
33881;DHT22;20172;47.530;10.256;2023-02-01T06:58:16;4.70;99.90
33881;DHT22;20172;47.530;10.256;2023-02-01T07:00:41;4.80;99.90
33881;DHT22;20172;47.530;10.256;2023-02-01T07:03:07;5.10;99.90
33881;DHT22;20172;47.530;10.256;2023-02-01T07:05:32;5.10;99.90
33881;DHT22;20172;47.530;10.256;2023-02-01T07:07:57;5.00;99.90
33881;DHT22;20172;47.530;10.256;2023-02-01T07:10:23;5.00;99.90
33881;DHT22;20172;47.530;10.256;2023-02-01T07:12:48;4.90;99.90
33881;DHT22;20172;47.530;10.256;2023-02-01T07:15:14;5.00;99.90
33881;DHT22;20172;47.530;10.256;2023-02-01T07:17:39;5.00;99.90
33881;DHT22;20172;47.530;10.256;2023-02-01T07:20:05;4.90;99.90
33881;DHT22;20172;47.530;10.256;2023-02-01T07:22:31;4.90;99.90
33881;DHT22;20172;47.530;10.256;2023-02-01T07:24:56;5.00;99.90
33881;DHT22;20172;47.530;10.256;2023-02-01T07:27:23;5.00;99.90
33881;DHT22;20172;47.530;10.256;2023-02-01T07:29:51;5.00;99.90
33881;DHT22;20172;47.530;10.256;2023-02-01T07:32:16;5.00;99.90
33881;DHT22;20172;47.530;10.256;2023-02-01T07:34:43;5.20;99.90
33881;DHT22;20172;47.530;10.256;2023-02-01T07:37:09;5.30;99.90
33881;DHT22;20172;47.530;10.256;2023-02-01T07:39:34;5.40;99.90
33881;DHT22;20172;47.530;10.256;2023-02-01T07:42:00;5.50;99.90
33881;DHT22;20172;47.530;10.256;2023-02-01T07:44:25;5.40;99.90
33881;DHT22;20172;47.530;10.256;2023-02-01T07:46:51;5.40;99.90
33881;DHT22;20172;47.530;10.256;2023-02-01T07:49:16;5.40;99.90
33881;DHT22;20172;47.530;10.256;2023-02-01T07:51:43;5.50;99.90
33881;DHT22;20172;47.530;10.256;2023-02-01T07:54:09;5.70;99.90
33881;DHT22;20172;47.530;10.256;2023-02-01T07:56:35;5.60;99.90
33881;DHT22;20172;47.530;10.256;2023-02-01T07:59:02;5.70;99.90
33881;DHT22;20172;47.530;10.256;2023-02-01T08:01:28;5.70;99.90
33881;DHT22;20172;47.530;10.256;2023-02-01T08:03:54;5.70;99.90
33881;DHT22;20172;47.530;10.256;2023-02-01T08:06:20;5.60;99.90
33881;DHT22;20172;47.530;10.256;2023-02-01T08:08:46;5.50;99.90
33881;DHT22;20172;47.530;10.256;2023-02-01T08:11:12;5.60;99.90
33881;DHT22;20172;47.530;10.256;2023-02-01T08:13:38;5.70;99.90
33881;DHT22;20172;47.530;10.256;2023-02-01T08:16:05;5.80;99.90
33881;DHT22;20172;47.530;10.256;2023-02-01T08:18:31;5.80;99.90
33881;DHT22;20172;47.530;10.256;2023-02-01T08:20:56;5.70;99.90
33881;DHT22;20172;47.530;10.256;2023-02-01T08:23:22;5.90;99.90
33881;DHT22;20172;47.530;10.256;2023-02-01T08:25:48;6.00;99.90
33881;DHT22;20172;47.530;10.256;2023-02-01T08:28:13;6.10;99.90
33881;DHT22;20172;47.530;10.256;2023-02-01T08:30:39;6.20;99.90
33881;DHT22;20172;47.530;10.256;2023-02-01T08:33:05;6.10;99.90
33881;DHT22;20172;47.530;10.256;2023-02-01T08:35:32;5.90;99.90
33881;DHT22;20172;47.530;10.256;2023-02-01T08:37:57;6.00;99.90
33881;DHT22;20172;47.530;10.256;2023-02-01T08:40:23;6.20;99.90
33881;DHT22;20172;47.530;10.256;2023-02-01T08:42:48;6.30;99.90
33881;DHT22;20172;47.530;10.256;2023-02-01T08:45:26;6.40;99.90
33881;DHT22;20172;47.530;10.256;2023-02-01T08:47:53;6.20;99.90
33881;DHT22;20172;47.530;10.256;2023-02-01T08:50:19;6.10;99.90
33881;DHT22;20172;47.530;10.256;2023-02-01T08:52:45;6.00;99.90
33881;DHT22;20172;47.530;10.256;2023-02-01T08:55:11;5.90;99.90
33881;DHT22;20172;47.530;10.256;2023-02-01T08:57:37;6.00;99.90
33881;DHT22;20172;47.530;10.256;2023-02-01T09:00:03;5.90;99.90
33881;DHT22;20172;47.530;10.256;2023-02-01T09:02:29;6.00;99.90
33881;DHT22;20172;47.530;10.256;2023-02-01T09:04:55;5.90;99.90
33881;DHT22;20172;47.530;10.256;2023-02-01T09:07:21;5.90;99.90
33881;DHT22;20172;47.530;10.256;2023-02-01T09:09:46;6.00;99.90
33881;DHT22;20172;47.530;10.256;2023-02-01T09:12:12;6.30;99.90
33881;DHT22;20172;47.530;10.256;2023-02-01T09:14:37;6.30;99.90
33881;DHT22;20172;47.530;10.256;2023-02-01T09:17:03;6.10;99.90
33881;DHT22;20172;47.530;10.256;2023-02-01T09:19:30;6.00;99.90
33881;DHT22;20172;47.530;10.256;2023-02-01T09:21:56;6.00;99.90
33881;DHT22;20172;47.530;10.256;2023-02-01T09:24:21;6.30;99.90
33881;DHT22;20172;47.530;10.256;2023-02-01T09:26:47;6.40;99.90
33881;DHT22;20172;47.530;10.256;2023-02-01T09:29:12;6.40;99.90
33881;DHT22;20172;47.530;10.256;2023-02-01T09:31:38;6.40;99.90
33881;DHT22;20172;47.530;10.256;2023-02-01T09:34:04;6.30;99.90
33881;DHT22;20172;47.530;10.256;2023-02-01T09:36:30;6.40;99.90
33881;DHT22;20172;47.530;10.256;2023-02-01T09:38:56;6.30;99.90
33881;DHT22;20172;47.530;10.256;2023-02-01T09:44:08;6.30;99.90
33881;DHT22;20172;47.530;10.256;2023-02-01T09:46:39;6.20;99.90
33881;DHT22;20172;47.530;10.256;2023-02-01T09:49:08;6.30;99.90
33881;DHT22;20172;47.530;10.256;2023-02-01T09:51:36;6.30;99.90
33881;DHT22;20172;47.530;10.256;2023-02-01T09:54:04;6.40;99.90
33881;DHT22;20172;47.530;10.256;2023-02-01T09:56:49;6.50;99.90
33881;DHT22;20172;47.530;10.256;2023-02-01T10:01:56;6.50;99.90
33881;DHT22;20172;47.530;10.256;2023-02-01T10:04:22;6.60;99.90
33881;DHT22;20172;47.530;10.256;2023-02-01T10:09:32;6.80;99.90
33881;DHT22;20172;47.530;10.256;2023-02-01T10:22:51;7.10;99.90
33881;DHT22;20172;47.530;10.256;2023-02-01T10:25:26;7.10;99.90
33881;DHT22;20172;47.530;10.256;2023-02-01T10:27:53;6.80;99.90
33881;DHT22;20172;47.530;10.256;2023-02-01T10:30:24;6.90;99.90
33881;DHT22;20172;47.530;10.256;2023-02-01T10:32:55;6.80;99.90
33881;DHT22;20172;47.530;10.256;2023-02-01T10:35:22;6.80;99.90
33881;DHT22;20172;47.530;10.256;2023-02-01T10:37:49;6.80;99.90
33881;DHT22;20172;47.530;10.256;2023-02-01T10:40:22;6.80;99.90
33881;DHT22;20172;47.530;10.256;2023-02-01T10:42:54;6.90;99.90
33881;DHT22;20172;47.530;10.256;2023-02-01T10:45:22;6.70;99.90
33881;DHT22;20172;47.530;10.256;2023-02-01T10:47:49;6.90;99.90
33881;DHT22;20172;47.530;10.256;2023-02-01T10:53:03;6.70;99.90
33881;DHT22;20172;47.530;10.256;2023-02-01T10:57:58;7.10;99.90
33881;DHT22;20172;47.530;10.256;2023-02-01T11:00:24;6.90;99.90
33881;DHT22;20172;47.530;10.256;2023-02-01T11:02:49;6.60;99.90
33881;DHT22;20172;47.530;10.256;2023-02-01T11:05:15;6.60;99.90
33881;DHT22;20172;47.530;10.256;2023-02-01T11:07:46;7.00;99.90
33881;DHT22;20172;47.530;10.256;2023-02-01T11:12:57;7.10;99.90
33881;DHT22;20172;47.530;10.256;2023-02-01T11:15:23;7.20;99.90
33881;DHT22;20172;47.530;10.256;2023-02-01T11:17:52;7.20;99.90
33881;DHT22;20172;47.530;10.256;2023-02-01T11:20:21;7.40;99.90
33881;DHT22;20172;47.530;10.256;2023-02-01T11:22:58;7.40;99.90
33881;DHT22;20172;47.530;10.256;2023-02-01T11:25:24;7.60;99.90
33881;DHT22;20172;47.530;10.256;2023-02-01T11:27:51;7.60;99.90
33881;DHT22;20172;47.530;10.256;2023-02-01T11:30:18;7.40;99.90
33881;DHT22;20172;47.530;10.256;2023-02-01T11:32:47;7.00;99.90
33881;DHT22;20172;47.530;10.256;2023-02-01T11:35:15;6.90;99.90
33881;DHT22;20172;47.530;10.256;2023-02-01T11:37:43;7.10;99.90
33881;DHT22;20172;47.530;10.256;2023-02-01T11:42:53;6.80;99.90
33881;DHT22;20172;47.530;10.256;2023-02-01T11:47:45;7.20;99.90
33881;DHT22;20172;47.530;10.256;2023-02-01T11:50:15;7.50;99.90
33881;DHT22;20172;47.530;10.256;2023-02-01T11:52:50;7.70;99.90
33881;DHT22;20172;47.530;10.256;2023-02-01T12:13:37;8.50;99.90
33881;DHT22;20172;47.530;10.256;2023-02-01T12:21:17;7.70;99.90
33881;DHT22;20172;47.530;10.256;2023-02-01T12:26:33;8.00;99.90
33881;DHT22;20172;47.530;10.256;2023-02-01T12:29:22;8.00;99.90
33881;DHT22;20172;47.530;10.256;2023-02-01T12:34:48;8.30;99.90
33881;DHT22;20172;47.530;10.256;2023-02-01T12:42:15;9.30;99.90
33881;DHT22;20172;47.530;10.256;2023-02-01T12:44:52;10.30;98.90
33881;DHT22;20172;47.530;10.256;2023-02-01T12:47:32;10.30;96.70
33881;DHT22;20172;47.530;10.256;2023-02-01T12:50:02;9.70;97.80
33881;DHT22;20172;47.530;10.256;2023-02-01T12:55:02;9.50;97.80
33881;DHT22;20172;47.530;10.256;2023-02-01T12:57:30;9.10;97.80
33881;DHT22;20172;47.530;10.256;2023-02-01T13:06:12;11.80;96.00
33881;DHT22;20172;47.530;10.256;2023-02-01T13:08:23;14.40;92.30
33881;DHT22;20172;47.530;10.256;2023-02-01T13:10:51;16.10;85.70
33881;DHT22;20172;47.530;10.256;2023-02-01T13:13:30;15.70;81.80
33881;DHT22;20172;47.530;10.256;2023-02-01T13:18:32;17.20;77.30
33881;DHT22;20172;47.530;10.256;2023-02-01T13:21:02;16.50;75.00
33881;DHT22;20172;47.530;10.256;2023-02-01T13:23:36;16.30;72.10
33881;DHT22;20172;47.530;10.256;2023-02-01T13:26:02;15.40;71.80
33881;DHT22;20172;47.530;10.256;2023-02-01T13:28:29;13.90;75.90
33881;DHT22;20172;47.530;10.256;2023-02-01T13:41:27;10.10;86.10
33881;DHT22;20172;47.530;10.256;2023-02-01T13:43:55;9.20;89.50
33881;DHT22;20172;47.530;10.256;2023-02-01T13:46:20;8.60;90.80
33881;DHT22;20172;47.530;10.256;2023-02-01T13:51:14;8.10;92.10
33881;DHT22;20172;47.530;10.256;2023-02-01T13:53:44;8.20;92.60
33881;DHT22;20172;47.530;10.256;2023-02-01T13:56:15;7.90;92.90
33881;DHT22;20172;47.530;10.256;2023-02-01T13:58:42;7.90;93.10
33881;DHT22;20172;47.530;10.256;2023-02-01T14:03:44;7.90;93.60
33881;DHT22;20172;47.530;10.256;2023-02-01T14:14:49;7.30;94.50
33881;DHT22;20172;47.530;10.256;2023-02-01T14:19:25;7.40;94.70
33881;DHT22;20172;47.530;10.256;2023-02-01T14:21:51;7.10;95.10
33881;DHT22;20172;47.530;10.256;2023-02-01T14:24:33;7.10;95.40
33881;DHT22;20172;47.530;10.256;2023-02-01T14:27:00;7.10;95.80
33881;DHT22;20172;47.530;10.256;2023-02-01T14:29:40;6.90;95.90
33881;DHT22;20172;47.530;10.256;2023-02-01T14:32:11;6.90;96.20
33881;DHT22;20172;47.530;10.256;2023-02-01T14:44:41;6.50;97.20
33881;DHT22;20172;47.530;10.256;2023-02-01T14:49:59;6.70;97.40
33881;DHT22;20172;47.530;10.256;2023-02-01T14:52:31;6.70;97.80
33881;DHT22;20172;47.530;10.256;2023-02-01T14:55:00;6.60;96.70
33881;DHT22;20172;47.530;10.256;2023-02-01T14:57:26;6.40;96.70
33881;DHT22;20172;47.530;10.256;2023-02-01T15:00:00;6.50;97.10
33881;DHT22;20172;47.530;10.256;2023-02-01T15:02:30;6.50;97.20
33881;DHT22;20172;47.530;10.256;2023-02-01T15:04:59;6.50;97.30
33881;DHT22;20172;47.530;10.256;2023-02-01T15:07:24;6.30;97.30
33881;DHT22;20172;47.530;10.256;2023-02-01T15:09:51;6.10;98.10
33881;DHT22;20172;47.530;10.256;2023-02-01T15:12:22;6.20;98.30
33881;DHT22;20172;47.530;10.256;2023-02-01T15:17:34;6.20;99.00
33881;DHT22;20172;47.530;10.256;2023-02-01T15:20:04;6.20;99.20
33881;DHT22;20172;47.530;10.256;2023-02-01T15:22:36;6.20;99.20
33881;DHT22;20172;47.530;10.256;2023-02-01T15:25:02;6.30;99.20
33881;DHT22;20172;47.530;10.256;2023-02-01T15:27:28;6.30;99.80
33881;DHT22;20172;47.530;10.256;2023-02-01T15:29:54;6.40;99.80
33881;DHT22;20172;47.530;10.256;2023-02-01T15:32:30;6.30;99.90
33881;DHT22;20172;47.530;10.256;2023-02-01T15:34:59;6.30;99.90
33881;DHT22;20172;47.530;10.256;2023-02-01T15:37:26;6.30;99.90
33881;DHT22;20172;47.530;10.256;2023-02-01T15:40:05;6.40;99.70
33881;DHT22;20172;47.530;10.256;2023-02-01T15:42:56;6.40;99.80
33881;DHT22;20172;47.530;10.256;2023-02-01T15:45:26;6.40;99.90
33881;DHT22;20172;47.530;10.256;2023-02-01T15:47:52;6.40;99.90
33881;DHT22;20172;47.530;10.256;2023-02-01T15:50:19;6.30;99.90
33881;DHT22;20172;47.530;10.256;2023-02-01T15:52:49;6.50;99.90
33881;DHT22;20172;47.530;10.256;2023-02-01T15:55:20;6.50;99.90
33881;DHT22;20172;47.530;10.256;2023-02-01T15:57:47;6.50;99.90
33881;DHT22;20172;47.530;10.256;2023-02-01T16:00:42;6.40;99.90
33881;DHT22;20172;47.530;10.256;2023-02-01T16:03:23;6.40;99.90
33881;DHT22;20172;47.530;10.256;2023-02-01T16:05:54;6.40;99.90
33881;DHT22;20172;47.530;10.256;2023-02-01T16:08:22;6.40;99.90
33881;DHT22;20172;47.530;10.256;2023-02-01T16:10:48;6.40;99.90
33881;DHT22;20172;47.530;10.256;2023-02-01T16:13:14;6.20;99.90
33881;DHT22;20172;47.530;10.256;2023-02-01T16:15:40;6.10;99.90
33881;DHT22;20172;47.530;10.256;2023-02-01T16:18:06;6.20;99.90
33881;DHT22;20172;47.530;10.256;2023-02-01T16:20:33;6.00;99.90
33881;DHT22;20172;47.530;10.256;2023-02-01T16:23:00;6.00;99.90
33881;DHT22;20172;47.530;10.256;2023-02-01T16:25:26;5.90;99.90
33881;DHT22;20172;47.530;10.256;2023-02-01T16:27:52;5.80;99.90
33881;DHT22;20172;47.530;10.256;2023-02-01T16:30:17;5.70;99.90
33881;DHT22;20172;47.530;10.256;2023-02-01T16:32:48;6.00;99.90
33881;DHT22;20172;47.530;10.256;2023-02-01T16:35:19;6.10;99.90
33881;DHT22;20172;47.530;10.256;2023-02-01T16:37:46;6.00;99.90
33881;DHT22;20172;47.530;10.256;2023-02-01T16:40:14;6.00;99.90
33881;DHT22;20172;47.530;10.256;2023-02-01T16:42:40;6.10;99.90
33881;DHT22;20172;47.530;10.256;2023-02-01T16:45:06;6.00;99.90
33881;DHT22;20172;47.530;10.256;2023-02-01T16:47:32;5.90;99.90
33881;DHT22;20172;47.530;10.256;2023-02-01T16:49:58;6.00;99.90
33881;DHT22;20172;47.530;10.256;2023-02-01T16:52:25;5.80;99.90
33881;DHT22;20172;47.530;10.256;2023-02-01T16:54:51;5.80;99.90
33881;DHT22;20172;47.530;10.256;2023-02-01T16:57:19;5.70;99.90
33881;DHT22;20172;47.530;10.256;2023-02-01T16:59:47;5.80;99.90
33881;DHT22;20172;47.530;10.256;2023-02-01T17:02:14;5.80;99.90
33881;DHT22;20172;47.530;10.256;2023-02-01T17:04:40;5.90;99.90
33881;DHT22;20172;47.530;10.256;2023-02-01T17:07:06;5.80;99.90
33881;DHT22;20172;47.530;10.256;2023-02-01T17:09:35;5.80;99.90
33881;DHT22;20172;47.530;10.256;2023-02-01T17:12:01;5.80;99.90
33881;DHT22;20172;47.530;10.256;2023-02-01T17:14:26;5.70;99.90
33881;DHT22;20172;47.530;10.256;2023-02-01T17:16:52;5.80;99.90
33881;DHT22;20172;47.530;10.256;2023-02-01T17:19:19;5.70;99.90
33881;DHT22;20172;47.530;10.256;2023-02-01T17:21:48;5.80;99.90
33881;DHT22;20172;47.530;10.256;2023-02-01T17:24:17;5.70;99.90
33881;DHT22;20172;47.530;10.256;2023-02-01T17:26:43;5.70;99.90
33881;DHT22;20172;47.530;10.256;2023-02-01T17:29:08;5.90;99.90
33881;DHT22;20172;47.530;10.256;2023-02-01T17:31:38;5.90;99.90
33881;DHT22;20172;47.530;10.256;2023-02-01T17:34:04;5.80;99.90
33881;DHT22;20172;47.530;10.256;2023-02-01T17:36:30;5.60;99.90
33881;DHT22;20172;47.530;10.256;2023-02-01T17:38:55;5.60;99.90
33881;DHT22;20172;47.530;10.256;2023-02-01T17:41:21;5.70;99.90
33881;DHT22;20172;47.530;10.256;2023-02-01T17:43:47;5.60;99.90
33881;DHT22;20172;47.530;10.256;2023-02-01T17:46:13;5.60;99.90
33881;DHT22;20172;47.530;10.256;2023-02-01T17:48:39;5.60;99.90
33881;DHT22;20172;47.530;10.256;2023-02-01T17:51:05;5.70;99.90
33881;DHT22;20172;47.530;10.256;2023-02-01T17:53:31;5.60;99.90
33881;DHT22;20172;47.530;10.256;2023-02-01T17:55:58;5.50;99.90
33881;DHT22;20172;47.530;10.256;2023-02-01T17:58:23;5.50;99.90
33881;DHT22;20172;47.530;10.256;2023-02-01T18:00:50;5.60;99.90
33881;DHT22;20172;47.530;10.256;2023-02-01T18:03:23;5.70;99.90
33881;DHT22;20172;47.530;10.256;2023-02-01T18:05:49;5.70;99.90
33881;DHT22;20172;47.530;10.256;2023-02-01T18:08:16;5.70;99.90
33881;DHT22;20172;47.530;10.256;2023-02-01T18:10:42;5.60;99.90